sensor_id;sensor_type;location;lat;lon;timestamp;P1;durP1;ratioP1;P2;durP2;ratioP2
45049;SDS011;61798;48.048;-1.928;2024-01-07T09:52:22;6.95;;;3.08;;
45049;SDS011;61798;48.048;-1.928;2024-01-07T09:54:28;6.47;;;3.10;;
45049;SDS011;61798;48.048;-1.928;2024-01-07T09:56:39;9.45;;;3.10;;
45049;SDS011;61798;48.048;-1.928;2024-01-07T09:58:59;7.90;;;2.85;;
45049;SDS011;61798;48.048;-1.928;2024-01-07T10:01:06;5.70;;;3.05;;
45049;SDS011;61798;48.048;-1.928;2024-01-07T10:03:17;6.07;;;2.22;;
45049;SDS011;61798;48.048;-1.928;2024-01-07T10:05:25;7.80;;;2.75;;
45049;SDS011;61798;48.048;-1.928;2024-01-07T10:07:35;3.65;;;2.45;;
45049;SDS011;61798;48.048;-1.928;2024-01-07T10:09:41;12.43;;;3.75;;
45049;SDS011;61798;48.048;-1.928;2024-01-07T10:11:49;5.47;;;3.10;;
45049;SDS011;61798;48.048;-1.928;2024-01-07T10:13:57;11.30;;;3.60;;
45049;SDS011;61798;48.048;-1.928;2024-01-07T10:16:05;7.47;;;4.35;;
45049;SDS011;61798;48.048;-1.928;2024-01-07T10:18:14;13.13;;;5.55;;
45049;SDS011;61798;48.048;-1.928;2024-01-07T10:20:20;7.20;;;3.53;;
45049;SDS011;61798;48.048;-1.928;2024-01-07T10:22:28;6.93;;;3.10;;
45049;SDS011;61798;48.048;-1.928;2024-01-07T10:24:37;6.68;;;3.55;;
45049;SDS011;61798;48.048;-1.928;2024-01-07T10:26:46;6.05;;;2.92;;
45049;SDS011;61798;48.048;-1.928;2024-01-07T10:28:52;6.45;;;2.95;;
45049;SDS011;61798;48.048;-1.928;2024-01-07T10:30:59;4.75;;;1.80;;
45049;SDS011;61798;48.048;-1.928;2024-01-07T10:33:05;4.03;;;2.03;;
45049;SDS011;61798;48.048;-1.928;2024-01-07T10:35:13;5.28;;;2.00;;
45049;SDS011;61798;48.048;-1.928;2024-01-07T10:37:22;4.22;;;2.05;;
45049;SDS011;61798;48.048;-1.928;2024-01-07T10:39:28;2.75;;;1.70;;
45049;SDS011;61798;48.048;-1.928;2024-01-07T10:41:35;3.10;;;1.55;;
45049;SDS011;61798;48.048;-1.928;2024-01-07T10:43:46;4.22;;;1.90;;
45049;SDS011;61798;48.048;-1.928;2024-01-07T10:45:53;2.65;;;1.77;;
45049;SDS011;61798;48.048;-1.928;2024-01-07T10:48:00;3.35;;;1.50;;
45049;SDS011;61798;48.048;-1.928;2024-01-07T10:50:12;4.43;;;2.25;;
45049;SDS011;61798;48.048;-1.928;2024-01-07T10:52:21;3.83;;;1.73;;
45049;SDS011;61798;48.048;-1.928;2024-01-07T10:54:30;3.03;;;1.75;;
45049;SDS011;61798;48.048;-1.928;2024-01-07T10:56:43;9.23;;;1.50;;
45049;SDS011;61798;48.048;-1.928;2024-01-07T10:58:54;2.75;;;1.35;;
45049;SDS011;61798;48.048;-1.928;2024-01-07T11:01:03;11.50;;;2.20;;
45049;SDS011;61798;48.048;-1.928;2024-01-07T11:03:37;3.88;;;1.67;;
45049;SDS011;61798;48.048;-1.928;2024-01-07T11:08:41;4.05;;;2.42;;
45049;SDS011;61798;48.048;-1.928;2024-01-07T11:10:58;8.30;;;3.55;;
45049;SDS011;61798;48.048;-1.928;2024-01-07T11:13:10;7.20;;;2.65;;
45049;SDS011;61798;48.048;-1.928;2024-01-07T11:15:51;4.75;;;2.35;;
45049;SDS011;61798;48.048;-1.928;2024-01-07T11:18:00;8.32;;;3.58;;
45049;SDS011;61798;48.048;-1.928;2024-01-07T11:20:19;9.43;;;2.40;;
45049;SDS011;61798;48.048;-1.928;2024-01-07T11:22:28;4.10;;;1.63;;
45049;SDS011;61798;48.048;-1.928;2024-01-07T11:24:39;9.43;;;4.03;;
45049;SDS011;61798;48.048;-1.928;2024-01-07T11:26:47;6.78;;;2.70;;
45049;SDS011;61798;48.048;-1.928;2024-01-07T11:28:55;6.50;;;3.17;;
45049;SDS011;61798;48.048;-1.928;2024-01-07T11:31:03;6.30;;;2.80;;
45049;SDS011;61798;48.048;-1.928;2024-01-07T11:33:11;9.30;;;2.38;;
45049;SDS011;61798;48.048;-1.928;2024-01-07T11:36:05;5.88;;;2.75;;
45049;SDS011;61798;48.048;-1.928;2024-01-07T11:38:08;20.60;;;5.85;;
45049;SDS011;61798;48.048;-1.928;2024-01-07T11:40:16;8.88;;;3.03;;
45049;SDS011;61798;48.048;-1.928;2024-01-07T11:42:24;10.57;;;4.07;;
45049;SDS011;61798;48.048;-1.928;2024-01-07T11:44:33;6.38;;;2.63;;
45049;SDS011;61798;48.048;-1.928;2024-01-07T11:46:43;7.47;;;2.08;;
45049;SDS011;61798;48.048;-1.928;2024-01-07T11:49:28;5.38;;;2.42;;
45049;SDS011;61798;48.048;-1.928;2024-01-07T11:52:14;5.88;;;1.55;;
45049;SDS011;61798;48.048;-1.928;2024-01-07T11:55:02;9.68;;;1.88;;
45049;SDS011;61798;48.048;-1.928;2024-01-07T11:57:51;6.05;;;2.28;;
45049;SDS011;61798;48.048;-1.928;2024-01-07T12:00:39;10.57;;;3.33;;
45049;SDS011;61798;48.048;-1.928;2024-01-07T12:03:28;4.80;;;2.53;;
45049;SDS011;61798;48.048;-1.928;2024-01-07T12:06:16;9.35;;;3.90;;
45049;SDS011;61798;48.048;-1.928;2024-01-07T12:09:03;5.15;;;2.40;;
45049;SDS011;61798;48.048;-1.928;2024-01-07T12:11:17;7.95;;;2.55;;
45049;SDS011;61798;48.048;-1.928;2024-01-07T12:14:01;6.57;;;2.13;;
45049;SDS011;61798;48.048;-1.928;2024-01-07T12:16:48;9.07;;;2.50;;
45049;SDS011;61798;48.048;-1.928;2024-01-07T12:19:31;6.05;;;2.45;;
45049;SDS011;61798;48.048;-1.928;2024-01-07T12:22:17;6.28;;;2.15;;
45049;SDS011;61798;48.048;-1.928;2024-01-07T12:25:05;3.78;;;1.88;;
45049;SDS011;61798;48.048;-1.928;2024-01-07T12:27:49;5.88;;;1.80;;
45049;SDS011;61798;48.048;-1.928;2024-01-07T12:30:37;4.80;;;1.70;;
45049;SDS011;61798;48.048;-1.928;2024-01-07T12:33:20;3.45;;;1.40;;
45049;SDS011;61798;48.048;-1.928;2024-01-07T12:36:04;8.43;;;1.77;;
45049;SDS011;61798;48.048;-1.928;2024-01-07T12:38:49;1.42;;;1.02;;
45049;SDS011;61798;48.048;-1.928;2024-01-07T12:41:37;5.32;;;1.80;;
45049;SDS011;61798;48.048;-1.928;2024-01-07T12:44:20;3.20;;;1.67;;
45049;SDS011;61798;48.048;-1.928;2024-01-07T12:47:02;5.78;;;1.67;;
45049;SDS011;61798;48.048;-1.928;2024-01-07T12:49:46;7.53;;;1.70;;
45049;SDS011;61798;48.048;-1.928;2024-01-07T12:52:30;2.28;;;1.65;;
45049;SDS011;61798;48.048;-1.928;2024-01-07T12:55:14;9.90;;;2.15;;
45049;SDS011;61798;48.048;-1.928;2024-01-07T12:57:58;4.75;;;1.73;;
45049;SDS011;61798;48.048;-1.928;2024-01-07T13:00:43;4.30;;;1.88;;
45049;SDS011;61798;48.048;-1.928;2024-01-07T13:05:35;4.50;;;1.90;;
45049;SDS011;61798;48.048;-1.928;2024-01-07T13:07:42;3.10;;;1.60;;
45049;SDS011;61798;48.048;-1.928;2024-01-07T13:09:49;4.90;;;1.95;;
45049;SDS011;61798;48.048;-1.928;2024-01-07T13:11:58;4.43;;;1.60;;
45049;SDS011;61798;48.048;-1.928;2024-01-07T13:14:05;6.10;;;1.67;;
45049;SDS011;61798;48.048;-1.928;2024-01-07T13:16:12;6.65;;;1.80;;
45049;SDS011;61798;48.048;-1.928;2024-01-07T13:18:27;3.20;;;1.10;;
45049;SDS011;61798;48.048;-1.928;2024-01-07T13:20:34;5.65;;;1.40;;
45049;SDS011;61798;48.048;-1.928;2024-01-07T13:22:48;3.10;;;1.35;;
45049;SDS011;61798;48.048;-1.928;2024-01-07T13:24:57;8.10;;;1.52;;
45049;SDS011;61798;48.048;-1.928;2024-01-07T13:28:01;7.63;;;1.77;;
45049;SDS011;61798;48.048;-1.928;2024-01-07T13:30:11;4.25;;;1.70;;
45049;SDS011;61798;48.048;-1.928;2024-01-07T13:32:18;9.70;;;1.33;;
45049;SDS011;61798;48.048;-1.928;2024-01-07T13:34:26;6.55;;;1.90;;
45049;SDS011;61798;48.048;-1.928;2024-01-07T13:36:33;1.95;;;1.33;;
45049;SDS011;61798;48.048;-1.928;2024-01-07T13:38:43;7.10;;;2.05;;
45049;SDS011;61798;48.048;-1.928;2024-01-07T13:40:51;4.95;;;2.00;;
45049;SDS011;61798;48.048;-1.928;2024-01-07T13:42:57;8.68;;;2.50;;
45049;SDS011;61798;48.048;-1.928;2024-01-07T13:45:04;5.30;;;2.22;;
45049;SDS011;61798;48.048;-1.928;2024-01-07T13:47:11;4.68;;;2.03;;
45049;SDS011;61798;48.048;-1.928;2024-01-07T13:49:20;6.40;;;2.03;;
45049;SDS011;61798;48.048;-1.928;2024-01-07T13:51:26;2.60;;;1.70;;
45049;SDS011;61798;48.048;-1.928;2024-01-07T13:53:35;18.73;;;2.10;;
45049;SDS011;61798;48.048;-1.928;2024-01-07T13:55:45;7.68;;;2.10;;
45049;SDS011;61798;48.048;-1.928;2024-01-07T13:57:52;4.32;;;2.20;;
45049;SDS011;61798;48.048;-1.928;2024-01-07T13:59:58;4.45;;;1.80;;
45049;SDS011;61798;48.048;-1.928;2024-01-07T14:02:07;6.47;;;2.53;;
45049;SDS011;61798;48.048;-1.928;2024-01-07T14:04:15;4.80;;;2.08;;
45049;SDS011;61798;48.048;-1.928;2024-01-07T14:06:24;6.40;;;2.70;;
45049;SDS011;61798;48.048;-1.928;2024-01-07T14:08:30;7.13;;;1.88;;
45049;SDS011;61798;48.048;-1.928;2024-01-07T14:10:39;3.08;;;1.63;;
45049;SDS011;61798;48.048;-1.928;2024-01-07T14:12:45;4.43;;;1.75;;
45049;SDS011;61798;48.048;-1.928;2024-01-07T14:14:54;4.00;;;1.58;;
45049;SDS011;61798;48.048;-1.928;2024-01-07T14:17:04;2.58;;;1.25;;
45049;SDS011;61798;48.048;-1.928;2024-01-07T14:19:12;1.52;;;1.00;;
45049;SDS011;61798;48.048;-1.928;2024-01-07T14:21:21;2.30;;;1.27;;
45049;SDS011;61798;48.048;-1.928;2024-01-07T14:23:28;5.50;;;1.40;;
45049;SDS011;61798;48.048;-1.928;2024-01-07T14:25:36;5.32;;;1.40;;
45049;SDS011;61798;48.048;-1.928;2024-01-07T14:27:50;6.82;;;1.40;;
45049;SDS011;61798;48.048;-1.928;2024-01-07T14:29:56;7.93;;;2.30;;
45049;SDS011;61798;48.048;-1.928;2024-01-07T14:32:06;4.40;;;1.23;;
45049;SDS011;61798;48.048;-1.928;2024-01-07T14:34:14;1.92;;;1.08;;
45049;SDS011;61798;48.048;-1.928;2024-01-07T14:36:20;5.68;;;1.30;;
45049;SDS011;61798;48.048;-1.928;2024-01-07T14:38:35;7.68;;;1.40;;
45049;SDS011;61798;48.048;-1.928;2024-01-07T14:40:48;4.38;;;1.35;;
45049;SDS011;61798;48.048;-1.928;2024-01-07T14:42:57;0.88;;;0.88;;
45049;SDS011;61798;48.048;-1.928;2024-01-07T14:45:03;1.85;;;1.13;;
45049;SDS011;61798;48.048;-1.928;2024-01-07T14:47:09;5.38;;;1.17;;
45049;SDS011;61798;48.048;-1.928;2024-01-07T14:49:20;2.45;;;1.45;;
45049;SDS011;61798;48.048;-1.928;2024-01-07T14:51:36;2.65;;;1.33;;
45049;SDS011;61798;48.048;-1.928;2024-01-07T14:53:43;1.50;;;1.00;;
45049;SDS011;61798;48.048;-1.928;2024-01-07T14:55:51;4.47;;;1.25;;
45049;SDS011;61798;48.048;-1.928;2024-01-07T14:57:57;2.70;;;0.90;;
45049;SDS011;61798;48.048;-1.928;2024-01-07T15:00:04;3.60;;;1.48;;
45049;SDS011;61798;48.048;-1.928;2024-01-07T15:02:12;1.95;;;0.90;;
45049;SDS011;61798;48.048;-1.928;2024-01-07T15:04:18;4.22;;;0.90;;
45049;SDS011;61798;48.048;-1.928;2024-01-07T15:06:24;1.40;;;0.95;;
45049;SDS011;61798;48.048;-1.928;2024-01-07T15:08:32;7.80;;;1.10;;
45049;SDS011;61798;48.048;-1.928;2024-01-07T15:10:42;5.28;;;1.30;;
45049;SDS011;61798;48.048;-1.928;2024-01-07T15:12:48;4.30;;;1.80;;
45049;SDS011;61798;48.048;-1.928;2024-01-07T15:14:55;3.78;;;1.95;;
45049;SDS011;61798;48.048;-1.928;2024-01-07T15:17:01;2.30;;;1.48;;
45049;SDS011;61798;48.048;-1.928;2024-01-07T15:19:07;5.07;;;2.15;;
45049;SDS011;61798;48.048;-1.928;2024-01-07T15:21:14;6.07;;;1.55;;
45049;SDS011;61798;48.048;-1.928;2024-01-07T15:23:23;2.05;;;1.23;;
45049;SDS011;61798;48.048;-1.928;2024-01-07T15:25:29;1.73;;;1.13;;
45049;SDS011;61798;48.048;-1.928;2024-01-07T15:27:42;8.43;;;1.65;;
45049;SDS011;61798;48.048;-1.928;2024-01-07T15:29:48;3.45;;;1.52;;
45049;SDS011;61798;48.048;-1.928;2024-01-07T15:31:54;2.03;;;1.30;;
45049;SDS011;61798;48.048;-1.928;2024-01-07T15:34:04;8.88;;;1.42;;
45049;SDS011;61798;48.048;-1.928;2024-01-07T15:36:11;4.68;;;1.75;;
45049;SDS011;61798;48.048;-1.928;2024-01-07T15:38:19;5.20;;;1.55;;
45049;SDS011;61798;48.048;-1.928;2024-01-07T15:40:30;5.78;;;1.98;;
45049;SDS011;61798;48.048;-1.928;2024-01-07T15:42:39;4.15;;;1.67;;
45049;SDS011;61798;48.048;-1.928;2024-01-07T15:44:50;7.53;;;1.77;;
45049;SDS011;61798;48.048;-1.928;2024-01-07T15:47:01;3.35;;;1.42;;
45049;SDS011;61798;48.048;-1.928;2024-01-07T15:49:17;3.20;;;1.30;;
45049;SDS011;61798;48.048;-1.928;2024-01-07T15:51:26;6.88;;;1.70;;
45049;SDS011;61798;48.048;-1.928;2024-01-07T15:53:39;6.28;;;1.30;;
45049;SDS011;61798;48.048;-1.928;2024-01-07T15:55:52;8.55;;;1.55;;
45049;SDS011;61798;48.048;-1.928;2024-01-07T15:58:00;3.22;;;1.50;;
45049;SDS011;61798;48.048;-1.928;2024-01-07T16:00:09;2.67;;;1.30;;
45049;SDS011;61798;48.048;-1.928;2024-01-07T16:02:16;4.45;;;1.50;;
45049;SDS011;61798;48.048;-1.928;2024-01-07T16:04:25;2.35;;;1.38;;
45049;SDS011;61798;48.048;-1.928;2024-01-07T16:06:31;2.35;;;1.30;;
45049;SDS011;61798;48.048;-1.928;2024-01-07T16:08:40;3.78;;;1.30;;
45049;SDS011;61798;48.048;-1.928;2024-01-07T16:10:46;3.55;;;1.52;;
45049;SDS011;61798;48.048;-1.928;2024-01-07T16:12:52;2.53;;;1.40;;
45049;SDS011;61798;48.048;-1.928;2024-01-07T16:15:04;2.95;;;1.85;;
45049;SDS011;61798;48.048;-1.928;2024-01-07T16:17:12;3.63;;;1.70;;
45049;SDS011;61798;48.048;-1.928;2024-01-07T16:19:18;4.68;;;1.30;;
45049;SDS011;61798;48.048;-1.928;2024-01-07T16:21:24;3.47;;;1.30;;
45049;SDS011;61798;48.048;-1.928;2024-01-07T16:23:34;6.20;;;1.55;;
45049;SDS011;61798;48.048;-1.928;2024-01-07T16:25:40;4.07;;;1.27;;
45049;SDS011;61798;48.048;-1.928;2024-01-07T16:27:49;4.90;;;1.50;;
45049;SDS011;61798;48.048;-1.928;2024-01-07T16:29:56;5.60;;;1.63;;
45049;SDS011;61798;48.048;-1.928;2024-01-07T16:32:08;9.68;;;1.70;;
45049;SDS011;61798;48.048;-1.928;2024-01-07T16:34:17;5.18;;;1.80;;
45049;SDS011;61798;48.048;-1.928;2024-01-07T16:36:26;7.18;;;1.55;;
45049;SDS011;61798;48.048;-1.928;2024-01-07T16:38:37;6.53;;;2.33;;
45049;SDS011;61798;48.048;-1.928;2024-01-07T16:40:49;5.68;;;1.42;;
45049;SDS011;61798;48.048;-1.928;2024-01-07T16:42:56;6.57;;;1.60;;
45049;SDS011;61798;48.048;-1.928;2024-01-07T16:45:04;4.63;;;1.73;;
45049;SDS011;61798;48.048;-1.928;2024-01-07T16:47:16;4.43;;;2.50;;
45049;SDS011;61798;48.048;-1.928;2024-01-07T16:49:24;4.68;;;1.58;;
45049;SDS011;61798;48.048;-1.928;2024-01-07T16:51:35;6.95;;;1.52;;
45049;SDS011;61798;48.048;-1.928;2024-01-07T16:53:43;4.63;;;1.95;;
45049;SDS011;61798;48.048;-1.928;2024-01-07T16:55:50;9.10;;;1.55;;
45049;SDS011;61798;48.048;-1.928;2024-01-07T16:58:20;2.50;;;1.80;;
45049;SDS011;61798;48.048;-1.928;2024-01-07T17:00:28;4.38;;;1.98;;
45049;SDS011;61798;48.048;-1.928;2024-01-07T17:02:38;4.55;;;1.65;;
45049;SDS011;61798;48.048;-1.928;2024-01-07T17:04:46;10.07;;;2.22;;
45049;SDS011;61798;48.048;-1.928;2024-01-07T17:06:52;8.55;;;2.10;;
45049;SDS011;61798;48.048;-1.928;2024-01-07T17:09:04;8.15;;;1.90;;
45049;SDS011;61798;48.048;-1.928;2024-01-07T17:11:11;4.53;;;1.58;;
45049;SDS011;61798;48.048;-1.928;2024-01-07T17:13:17;10.82;;;3.08;;
45049;SDS011;61798;48.048;-1.928;2024-01-07T17:15:30;6.32;;;1.98;;
45049;SDS011;61798;48.048;-1.928;2024-01-07T17:17:38;4.88;;;2.15;;
45049;SDS011;61798;48.048;-1.928;2024-01-07T17:19:53;8.75;;;2.10;;
45049;SDS011;61798;48.048;-1.928;2024-01-07T17:22:04;5.65;;;1.67;;
45049;SDS011;61798;48.048;-1.928;2024-01-07T17:24:12;10.38;;;2.03;;
45049;SDS011;61798;48.048;-1.928;2024-01-07T17:26:22;4.30;;;1.90;;
45049;SDS011;61798;48.048;-1.928;2024-01-07T17:28:33;8.80;;;1.45;;
45049;SDS011;61798;48.048;-1.928;2024-01-07T17:30:40;4.18;;;1.73;;
45049;SDS011;61798;48.048;-1.928;2024-01-07T17:32:53;5.93;;;2.42;;
45049;SDS011;61798;48.048;-1.928;2024-01-07T17:35:03;3.47;;;1.70;;
45049;SDS011;61798;48.048;-1.928;2024-01-07T17:37:11;7.10;;;1.85;;
45049;SDS011;61798;48.048;-1.928;2024-01-07T17:39:18;3.47;;;2.10;;
45049;SDS011;61798;48.048;-1.928;2024-01-07T17:41:29;8.90;;;1.73;;
45049;SDS011;61798;48.048;-1.928;2024-01-07T17:43:37;7.10;;;1.80;;
45049;SDS011;61798;48.048;-1.928;2024-01-07T17:45:45;3.60;;;1.80;;
45049;SDS011;61798;48.048;-1.928;2024-01-07T17:47:52;5.35;;;1.80;;
45049;SDS011;61798;48.048;-1.928;2024-01-07T17:50:00;6.78;;;2.15;;
45049;SDS011;61798;48.048;-1.928;2024-01-07T17:52:08;3.95;;;1.60;;
45049;SDS011;61798;48.048;-1.928;2024-01-07T17:54:14;4.47;;;1.95;;
45049;SDS011;61798;48.048;-1.928;2024-01-07T17:56:20;5.68;;;1.80;;
45049;SDS011;61798;48.048;-1.928;2024-01-07T17:58:26;4.88;;;1.95;;
45049;SDS011;61798;48.048;-1.928;2024-01-07T18:00:32;6.43;;;2.03;;
45049;SDS011;61798;48.048;-1.928;2024-01-07T18:02:39;2.88;;;1.95;;
45049;SDS011;61798;48.048;-1.928;2024-01-07T18:04:46;2.53;;;1.52;;
45049;SDS011;61798;48.048;-1.928;2024-01-07T18:06:52;3.25;;;1.83;;
45049;SDS011;61798;48.048;-1.928;2024-01-07T18:09:01;7.63;;;2.17;;
45049;SDS011;61798;48.048;-1.928;2024-01-07T18:11:07;3.58;;;1.80;;
45049;SDS011;61798;48.048;-1.928;2024-01-07T18:13:13;4.15;;;2.28;;
45049;SDS011;61798;48.048;-1.928;2024-01-07T18:15:22;4.20;;;1.80;;
45049;SDS011;61798;48.048;-1.928;2024-01-07T18:17:30;3.05;;;1.80;;
45049;SDS011;61798;48.048;-1.928;2024-01-07T18:19:37;3.95;;;2.20;;
45049;SDS011;61798;48.048;-1.928;2024-01-07T18:21:44;8.05;;;2.55;;
45049;SDS011;61798;48.048;-1.928;2024-01-07T18:23:51;5.13;;;2.35;;
45049;SDS011;61798;48.048;-1.928;2024-01-07T18:25:59;5.32;;;2.53;;
45049;SDS011;61798;48.048;-1.928;2024-01-07T18:28:06;4.38;;;2.03;;
45049;SDS011;61798;48.048;-1.928;2024-01-07T18:30:14;5.32;;;2.00;;
45049;SDS011;61798;48.048;-1.928;2024-01-07T18:32:38;7.80;;;2.92;;
45049;SDS011;61798;48.048;-1.928;2024-01-07T18:34:45;9.88;;;2.30;;
45049;SDS011;61798;48.048;-1.928;2024-01-07T18:36:52;11.15;;;3.55;;
45049;SDS011;61798;48.048;-1.928;2024-01-07T18:39:00;11.45;;;3.17;;
45049;SDS011;61798;48.048;-1.928;2024-01-07T18:41:07;14.45;;;3.33;;
45049;SDS011;61798;48.048;-1.928;2024-01-07T18:43:15;7.07;;;3.00;;
45049;SDS011;61798;48.048;-1.928;2024-01-07T18:45:22;6.47;;;2.35;;
45049;SDS011;61798;48.048;-1.928;2024-01-07T18:47:30;3.60;;;2.33;;
45049;SDS011;61798;48.048;-1.928;2024-01-07T18:49:38;16.20;;;3.70;;
45049;SDS011;61798;48.048;-1.928;2024-01-07T18:51:46;8.55;;;3.50;;
45049;SDS011;61798;48.048;-1.928;2024-01-07T18:53:53;5.97;;;2.92;;
45049;SDS011;61798;48.048;-1.928;2024-01-07T18:56:00;14.35;;;4.60;;
45049;SDS011;61798;48.048;-1.928;2024-01-07T18:58:11;12.20;;;5.18;;
45049;SDS011;61798;48.048;-1.928;2024-01-07T19:00:19;18.70;;;5.78;;
45049;SDS011;61798;48.048;-1.928;2024-01-07T19:02:25;17.23;;;5.13;;
45049;SDS011;61798;48.048;-1.928;2024-01-07T19:04:33;12.48;;;3.58;;
45049;SDS011;61798;48.048;-1.928;2024-01-07T19:06:40;12.10;;;3.97;;
45049;SDS011;61798;48.048;-1.928;2024-01-07T19:08:47;15.82;;;4.40;;
45049;SDS011;61798;48.048;-1.928;2024-01-07T19:10:54;8.20;;;3.90;;
45049;SDS011;61798;48.048;-1.928;2024-01-07T19:13:01;19.20;;;4.35;;
45049;SDS011;61798;48.048;-1.928;2024-01-07T19:15:09;12.48;;;3.90;;
45049;SDS011;61798;48.048;-1.928;2024-01-07T19:17:16;10.90;;;4.40;;
45049;SDS011;61798;48.048;-1.928;2024-01-07T19:19:23;8.20;;;3.65;;
45049;SDS011;61798;48.048;-1.928;2024-01-07T19:21:31;9.80;;;3.47;;
45049;SDS011;61798;48.048;-1.928;2024-01-07T19:23:37;16.33;;;4.10;;
45049;SDS011;61798;48.048;-1.928;2024-01-07T19:25:46;20.60;;;5.50;;
45049;SDS011;61798;48.048;-1.928;2024-01-07T19:27:53;17.58;;;6.47;;
45049;SDS011;61798;48.048;-1.928;2024-01-07T19:30:03;23.70;;;7.25;;
45049;SDS011;61798;48.048;-1.928;2024-01-07T19:32:13;21.42;;;8.98;;
45049;SDS011;61798;48.048;-1.928;2024-01-07T19:34:23;44.10;;;14.55;;
45049;SDS011;61798;48.048;-1.928;2024-01-07T19:36:30;28.23;;;12.05;;
45049;SDS011;61798;48.048;-1.928;2024-01-07T19:38:39;23.60;;;9.05;;
45049;SDS011;61798;48.048;-1.928;2024-01-07T19:40:47;19.83;;;6.97;;
45049;SDS011;61798;48.048;-1.928;2024-01-07T19:42:57;18.30;;;7.20;;
45049;SDS011;61798;48.048;-1.928;2024-01-07T19:45:04;11.77;;;5.78;;
45049;SDS011;61798;48.048;-1.928;2024-01-07T19:47:12;11.48;;;5.18;;
45049;SDS011;61798;48.048;-1.928;2024-01-07T19:49:19;15.60;;;5.97;;
45049;SDS011;61798;48.048;-1.928;2024-01-07T19:51:27;17.17;;;8.15;;
45049;SDS011;61798;48.048;-1.928;2024-01-07T19:53:35;12.52;;;5.03;;
45049;SDS011;61798;48.048;-1.928;2024-01-07T19:55:45;7.07;;;3.63;;
45049;SDS011;61798;48.048;-1.928;2024-01-07T19:57:59;10.23;;;3.47;;
45049;SDS011;61798;48.048;-1.928;2024-01-07T20:00:06;10.63;;;3.08;;
45049;SDS011;61798;48.048;-1.928;2024-01-07T20:02:16;8.82;;;2.90;;
45049;SDS011;61798;48.048;-1.928;2024-01-07T20:04:23;6.68;;;2.90;;
45049;SDS011;61798;48.048;-1.928;2024-01-07T20:06:30;10.23;;;3.67;;
45049;SDS011;61798;48.048;-1.928;2024-01-07T20:08:43;11.13;;;4.13;;
45049;SDS011;61798;48.048;-1.928;2024-01-07T20:10:51;11.90;;;4.15;;
45049;SDS011;61798;48.048;-1.928;2024-01-07T20:12:59;17.40;;;7.00;;
45049;SDS011;61798;48.048;-1.928;2024-01-07T20:15:08;19.67;;;7.15;;
45049;SDS011;61798;48.048;-1.928;2024-01-07T20:17:17;25.40;;;11.65;;
45049;SDS011;61798;48.048;-1.928;2024-01-07T20:19:24;28.15;;;12.95;;
45049;SDS011;61798;48.048;-1.928;2024-01-07T20:21:31;22.75;;;10.82;;
45049;SDS011;61798;48.048;-1.928;2024-01-07T20:23:36;18.50;;;8.27;;
45049;SDS011;61798;48.048;-1.928;2024-01-07T20:25:44;14.52;;;6.55;;
45049;SDS011;61798;48.048;-1.928;2024-01-07T20:27:53;9.55;;;5.32;;
45049;SDS011;61798;48.048;-1.928;2024-01-07T20:29:58;5.90;;;3.50;;
45049;SDS011;61798;48.048;-1.928;2024-01-07T20:32:07;13.80;;;4.22;;
45049;SDS011;61798;48.048;-1.928;2024-01-07T20:34:16;10.98;;;3.78;;
45049;SDS011;61798;48.048;-1.928;2024-01-07T20:36:26;5.82;;;3.15;;
45049;SDS011;61798;48.048;-1.928;2024-01-07T20:38:35;10.57;;;3.90;;
45049;SDS011;61798;48.048;-1.928;2024-01-07T20:40:42;4.70;;;2.83;;
45049;SDS011;61798;48.048;-1.928;2024-01-07T20:42:52;11.65;;;3.20;;
45049;SDS011;61798;48.048;-1.928;2024-01-07T20:45:00;16.60;;;6.93;;
45049;SDS011;61798;48.048;-1.928;2024-01-07T20:47:06;8.90;;;5.20;;
45049;SDS011;61798;48.048;-1.928;2024-01-07T20:49:14;8.60;;;3.80;;
45049;SDS011;61798;48.048;-1.928;2024-01-07T20:51:24;7.75;;;3.72;;
45049;SDS011;61798;48.048;-1.928;2024-01-07T20:53:32;10.25;;;4.32;;
45049;SDS011;61798;48.048;-1.928;2024-01-07T20:55:42;15.27;;;5.82;;
45049;SDS011;61798;48.048;-1.928;2024-01-07T20:57:50;13.10;;;7.13;;
45049;SDS011;61798;48.048;-1.928;2024-01-07T20:59:57;13.55;;;6.85;;
45049;SDS011;61798;48.048;-1.928;2024-01-07T21:02:07;22.98;;;9.32;;
45049;SDS011;61798;48.048;-1.928;2024-01-07T21:04:15;16.70;;;6.95;;
45049;SDS011;61798;48.048;-1.928;2024-01-07T21:06:23;13.02;;;5.78;;
45049;SDS011;61798;48.048;-1.928;2024-01-07T21:08:30;11.30;;;3.60;;
45049;SDS011;61798;48.048;-1.928;2024-01-07T21:10:39;13.35;;;3.92;;
45049;SDS011;61798;48.048;-1.928;2024-01-07T21:12:46;8.60;;;2.67;;
45049;SDS011;61798;48.048;-1.928;2024-01-07T21:14:54;6.13;;;3.05;;
45049;SDS011;61798;48.048;-1.928;2024-01-07T21:17:02;4.95;;;2.65;;
45049;SDS011;61798;48.048;-1.928;2024-01-07T21:19:09;8.43;;;2.45;;
45049;SDS011;61798;48.048;-1.928;2024-01-07T21:21:51;9.02;;;2.55;;
45049;SDS011;61798;48.048;-1.928;2024-01-07T21:24:32;8.25;;;2.53;;
45049;SDS011;61798;48.048;-1.928;2024-01-07T21:27:16;8.60;;;2.60;;
45049;SDS011;61798;48.048;-1.928;2024-01-07T21:29:59;9.73;;;3.22;;
45049;SDS011;61798;48.048;-1.928;2024-01-07T21:32:42;6.47;;;2.67;;
45049;SDS011;61798;48.048;-1.928;2024-01-07T21:35:25;7.57;;;2.80;;
45049;SDS011;61798;48.048;-1.928;2024-01-07T21:37:33;9.65;;;2.78;;
45049;SDS011;61798;48.048;-1.928;2024-01-07T21:39:39;4.70;;;2.83;;
45049;SDS011;61798;48.048;-1.928;2024-01-07T21:41:45;5.32;;;2.47;;
45049;SDS011;61798;48.048;-1.928;2024-01-07T21:43:51;5.35;;;2.47;;
45049;SDS011;61798;48.048;-1.928;2024-01-07T21:45:57;6.47;;;2.38;;
45049;SDS011;61798;48.048;-1.928;2024-01-07T21:48:03;9.75;;;2.38;;
45049;SDS011;61798;48.048;-1.928;2024-01-07T21:50:09;7.50;;;2.20;;
45049;SDS011;61798;48.048;-1.928;2024-01-07T21:52:16;7.22;;;2.88;;
45049;SDS011;61798;48.048;-1.928;2024-01-07T21:54:30;7.22;;;2.75;;
45049;SDS011;61798;48.048;-1.928;2024-01-07T21:56:36;7.72;;;2.85;;
45049;SDS011;61798;48.048;-1.928;2024-01-07T21:58:42;7.22;;;3.15;;
45049;SDS011;61798;48.048;-1.928;2024-01-07T22:00:48;6.15;;;3.10;;
45049;SDS011;61798;48.048;-1.928;2024-01-07T22:02:54;8.77;;;3.20;;
45049;SDS011;61798;48.048;-1.928;2024-01-07T22:04:59;9.77;;;3.45;;
45049;SDS011;61798;48.048;-1.928;2024-01-07T22:07:06;10.80;;;3.92;;
45049;SDS011;61798;48.048;-1.928;2024-01-07T22:09:12;5.60;;;3.08;;
45049;SDS011;61798;48.048;-1.928;2024-01-07T22:11:18;5.30;;;2.65;;
45049;SDS011;61798;48.048;-1.928;2024-01-07T22:13:24;9.52;;;3.28;;
45049;SDS011;61798;48.048;-1.928;2024-01-07T22:15:30;9.02;;;3.50;;
45049;SDS011;61798;48.048;-1.928;2024-01-07T22:17:36;8.73;;;3.30;;
45049;SDS011;61798;48.048;-1.928;2024-01-07T22:19:41;6.00;;;3.65;;
45049;SDS011;61798;48.048;-1.928;2024-01-07T22:21:47;8.73;;;3.13;;
45049;SDS011;61798;48.048;-1.928;2024-01-07T22:23:53;7.10;;;3.40;;
45049;SDS011;61798;48.048;-1.928;2024-01-07T22:25:59;16.52;;;4.28;;
45049;SDS011;61798;48.048;-1.928;2024-01-07T22:28:05;8.82;;;3.30;;
45049;SDS011;61798;48.048;-1.928;2024-01-07T22:30:11;8.98;;;3.30;;
45049;SDS011;61798;48.048;-1.928;2024-01-07T22:32:17;5.70;;;3.42;;
45049;SDS011;61798;48.048;-1.928;2024-01-07T22:34:23;7.88;;;3.15;;
45049;SDS011;61798;48.048;-1.928;2024-01-07T22:36:29;8.63;;;2.88;;
45049;SDS011;61798;48.048;-1.928;2024-01-07T22:38:36;6.80;;;3.47;;
45049;SDS011;61798;48.048;-1.928;2024-01-07T22:40:42;8.93;;;3.33;;
45049;SDS011;61798;48.048;-1.928;2024-01-07T22:42:48;16.88;;;3.05;;
45049;SDS011;61798;48.048;-1.928;2024-01-07T22:44:54;11.07;;;3.55;;
45049;SDS011;61798;48.048;-1.928;2024-01-07T22:47:00;10.18;;;3.85;;
45049;SDS011;61798;48.048;-1.928;2024-01-07T22:49:06;10.13;;;3.92;;
45049;SDS011;61798;48.048;-1.928;2024-01-07T22:51:11;8.27;;;3.47;;
45049;SDS011;61798;48.048;-1.928;2024-01-07T22:53:17;9.35;;;3.45;;
45049;SDS011;61798;48.048;-1.928;2024-01-07T22:55:23;10.05;;;3.53;;
45049;SDS011;61798;48.048;-1.928;2024-01-07T22:57:29;7.88;;;3.55;;